createdAt,value
2019-05-12T00:02:54.636Z,90.20
2019-05-12T00:06:58.505Z,89.90
2019-05-12T00:11:01.740Z,90.10
2019-05-12T00:15:08.032Z,89.80
2019-05-12T00:19:10.728Z,89.20
2019-05-12T00:23:26.691Z,89.30
2019-05-12T00:27:20.612Z,88.90
2019-05-12T00:31:23.735Z,89.50
2019-05-12T00:35:28.501Z,89.40
2019-05-12T00:39:31.691Z,88.90
2019-05-12T00:43:34.698Z,88.80
2019-05-12T00:47:38.885Z,88.00
2019-05-12T00:51:42.043Z,88.50
2019-05-12T00:55:47.524Z,88.30
2019-05-12T00:59:50.392Z,88.10
2019-05-12T01:03:53.371Z,88.10
2019-05-12T01:07:58.347Z,88.00
2019-05-12T01:12:01.336Z,87.70
2019-05-12T01:16:04.319Z,87.80
2019-05-12T01:20:08.910Z,88.10
2019-05-12T01:24:12.105Z,88.00
2019-05-12T01:28:15.104Z,88.20
2019-05-12T01:32:28.851Z,88.00
2019-05-12T01:36:31.905Z,88.40
2019-05-12T01:40:35.045Z,87.90
2019-05-12T01:44:38.279Z,87.80
2019-05-12T01:48:41.417Z,88.00
2019-05-12T01:52:44.407Z,88.10
2019-05-12T01:56:48.274Z,88.00
2019-05-12T02:00:51.459Z,87.70
2019-05-12T02:05:01.898Z,87.60
2019-05-12T02:09:08.072Z,87.30
2019-05-12T02:13:11.099Z,87.60
2019-05-12T02:17:14.096Z,87.80
2019-05-12T02:21:18.946Z,87.50
2019-05-12T02:25:22.030Z,87.60
2019-05-12T02:29:25.039Z,87.40
2019-05-12T02:33:28.048Z,87.00
2019-05-12T02:37:31.066Z,87.20
2019-05-12T02:41:34.671Z,87.10
2019-05-12T02:45:37.775Z,87.00
2019-05-12T02:49:40.779Z,86.80
2019-05-12T02:53:47.117Z,86.60
2019-05-12T02:57:50.882Z,86.90
2019-05-12T03:01:55.224Z,87.30
2019-05-12T03:05:59.018Z,86.90
2019-05-12T03:10:05.212Z,86.60
2019-05-12T03:14:08.342Z,86.60
2019-05-12T03:18:14.362Z,86.70
2019-05-12T03:22:16.301Z,86.60
2019-05-12T03:26:19.320Z,86.20
2019-05-12T03:30:28.419Z,86.20
2019-05-12T03:34:29.287Z,86.30
2019-05-12T03:38:35.706Z,86.30
2019-05-12T03:42:37.074Z,86.40
2019-05-12T03:46:40.091Z,86.40
2019-05-12T03:50:46.060Z,86.30
2019-05-12T03:54:47.973Z,86.10
2019-05-12T03:58:54.142Z,86.00
2019-05-12T04:02:56.687Z,85.60
2019-05-12T04:06:59.708Z,86.40
2019-05-12T04:11:05.281Z,86.00
2019-05-12T04:15:07.810Z,84.80
2019-05-12T04:19:10.838Z,85.10
2019-05-12T04:23:15.356Z,85.20
2019-05-12T04:27:18.745Z,85.00
2019-05-12T04:31:24.743Z,84.70
2019-05-12T04:35:26.739Z,84.80
2019-05-12T04:39:29.734Z,85.10
2019-05-12T04:43:35.267Z,84.30
2019-05-12T04:51:25.929Z,84.20
2019-05-12T04:55:28.944Z,83.00
2019-05-12T04:59:34.511Z,83.30
2019-05-12T05:03:36.955Z,82.60
2019-05-12T05:07:39.977Z,81.70
2019-05-12T05:11:45.115Z,82.90
2019-05-12T05:15:47.958Z,81.30
2019-05-12T05:19:52.856Z,80.60
2019-05-12T05:23:55.878Z,79.40
2019-05-12T05:27:58.873Z,79.50
2019-05-12T05:32:03.538Z,78.20
2019-05-12T05:36:08.792Z,79.50
2019-05-12T05:40:13.886Z,79.00
2019-05-12T05:44:16.432Z,78.00
2019-05-12T05:48:19.444Z,77.90
2019-05-12T05:52:26.570Z,76.80
2019-05-12T05:56:39.732Z,77.60
2019-05-12T06:00:35.130Z,76.70
2019-05-12T06:04:39.131Z,77.40
2019-05-12T06:08:45.180Z,76.90
2019-05-12T06:12:50.823Z,78.70
2019-05-12T06:16:53.799Z,79.00
2019-05-12T06:20:57.044Z,79.80
2019-05-12T06:25:00.067Z,80.80
2019-05-12T06:29:04.473Z,80.40
2019-05-12T06:33:07.691Z,80.40
2019-05-12T06:37:12.234Z,80.20
2019-05-12T06:41:20.561Z,81.20
2019-05-12T06:45:23.373Z,80.70
2019-05-12T06:49:25.728Z,80.50
2019-05-12T06:53:31.063Z,79.60
2019-05-12T06:57:34.448Z,78.60
2019-05-12T07:01:37.552Z,79.40
2019-05-12T07:05:42.555Z,78.60
2019-05-12T07:09:54.275Z,78.80
2019-05-12T07:14:01.415Z,80.70
2019-05-12T07:18:00.269Z,79.90
2019-05-12T07:22:07.879Z,79.70
2019-05-12T07:26:14.085Z,79.70
2019-05-12T07:30:17.151Z,80.30
2019-05-12T07:34:20.364Z,80.20
2019-05-12T07:38:25.899Z,80.10
2019-05-12T07:42:31.106Z,80.80
2019-05-12T07:46:34.302Z,80.10
2019-05-12T07:50:37.475Z,80.20
2019-05-12T07:54:41.623Z,78.80
2019-05-12T07:58:49.081Z,78.80
2019-05-12T08:02:49.578Z,78.50
2019-05-12T08:06:53.810Z,78.30
2019-05-12T08:10:57.092Z,77.60
2019-05-12T08:15:05.440Z,76.90
2019-05-12T08:19:07.930Z,76.40
2019-05-12T08:23:10.671Z,75.80
2019-05-12T08:27:14.387Z,74.60
2019-05-12T08:31:17.557Z,75.40
2019-05-12T08:35:29.382Z,74.50
2019-05-12T08:39:26.101Z,74.90
2019-05-12T08:43:29.292Z,73.70
2019-05-12T08:47:35.547Z,74.60
2019-05-12T08:51:37.332Z,72.60
2019-05-12T08:55:43.587Z,72.70
2019-05-12T08:59:46.813Z,71.80
2019-05-12T09:03:49.903Z,70.90
2019-05-12T09:07:54.129Z,71.70
2019-05-12T09:11:57.340Z,70.30
2019-05-12T09:16:00.440Z,70.10
2019-05-12T09:20:08.315Z,66.10
2019-05-12T09:24:13.609Z,60.10
2019-05-12T09:28:14.588Z,54.40
2019-05-12T09:32:17.840Z,54.10
2019-05-12T09:36:21.699Z,55.80
2019-05-12T09:40:25.366Z,57.50
2019-05-12T09:44:30.418Z,56.40
2019-05-12T09:48:33.516Z,58.00
2019-05-12T09:52:36.600Z,60.00
2019-05-12T09:56:43.986Z,53.00
2019-05-12T10:00:46.216Z,53.90
2019-05-12T10:04:50.379Z,50.20
2019-05-12T10:08:54.853Z,50.50
2019-05-12T10:12:58.147Z,48.20
2019-05-12T10:17:03.676Z,45.00
2019-05-12T10:21:10.137Z,43.40
2019-05-12T10:25:14.183Z,45.00
2019-05-12T10:29:20.648Z,42.70
2019-05-12T10:33:23.276Z,43.30
2019-05-12T10:37:29.317Z,44.30
2019-05-12T10:41:31.332Z,42.90
2019-05-12T10:45:34.850Z,43.50
2019-05-12T10:49:37.857Z,43.80
2019-05-12T10:53:43.165Z,46.80
2019-05-12T10:57:47.348Z,47.60
2019-05-12T11:01:50.532Z,48.60
2019-05-12T11:05:56.616Z,44.40
2019-05-12T11:10:03.574Z,44.90
2019-05-12T11:14:04.009Z,42.40
2019-05-12T11:18:08.927Z,43.30
2019-05-12T11:22:13.891Z,44.70
2019-05-12T11:26:16.881Z,40.30
2019-05-12T11:30:19.998Z,40.30
2019-05-12T11:34:23.036Z,38.40
2019-05-12T11:38:26.039Z,40.90
2019-05-12T11:42:29.057Z,42.20
2019-05-12T11:46:36.191Z,42.10
2019-05-12T11:50:40.557Z,39.60
2019-05-12T11:54:49.138Z,39.90
2019-05-12T11:58:51.474Z,41.40
2019-05-12T12:02:52.552Z,37.40
2019-05-12T12:06:55.564Z,40.00
2019-05-12T12:10:58.588Z,40.80
2019-05-12T12:15:01.709Z,41.00
2019-05-12T12:19:06.001Z,42.60
2019-05-12T12:23:11.034Z,40.40
2019-05-12T12:27:14.282Z,38.50
2019-05-12T12:31:17.461Z,38.70
2019-05-12T12:35:20.593Z,41.20
2019-05-12T12:39:23.849Z,42.00
2019-05-12T12:43:27.036Z,41.40
2019-05-12T12:47:30.056Z,42.00
2019-05-12T12:51:34.227Z,38.40
2019-05-12T12:55:37.959Z,40.40
2019-05-12T12:59:51.111Z,41.00
2019-05-12T13:03:47.345Z,41.10
2019-05-12T13:07:50.404Z,40.10
2019-05-12T13:11:53.667Z,40.20
2019-05-12T13:15:56.847Z,39.10
2019-05-12T13:19:59.882Z,38.50
2019-05-12T13:24:03.601Z,39.20
2019-05-12T13:28:10.771Z,38.00
2019-05-12T13:32:13.629Z,36.60
2019-05-12T13:36:16.680Z,39.30
2019-05-12T13:40:19.836Z,40.40
2019-05-12T13:44:24.066Z,36.70
2019-05-12T13:48:27.230Z,36.70
2019-05-12T13:52:30.607Z,36.80
2019-05-12T13:56:35.806Z,37.00
2019-05-12T14:00:41.445Z,37.50
2019-05-12T14:04:44.956Z,37.80
2019-05-12T14:08:48.139Z,39.60
2019-05-12T14:12:51.172Z,37.70
2019-05-12T14:16:59.360Z,38.20
2019-05-12T14:21:00.496Z,38.10
2019-05-12T14:25:05.567Z,40.70
2019-05-12T14:29:08.823Z,39.20
2019-05-12T14:33:11.905Z,39.00
2019-05-12T14:37:17.538Z,38.10
2019-05-12T14:41:19.891Z,39.40
2019-05-12T14:45:27.880Z,38.90
2019-05-12T14:49:30.520Z,37.50
2019-05-12T14:53:37.721Z,37.90
2019-05-12T14:57:39.352Z,38.40
2019-05-12T15:01:53.606Z,38.40
2019-05-12T15:05:49.012Z,36.90
2019-05-12T15:09:55.705Z,36.30
2019-05-12T15:13:57.074Z,36.10
2019-05-12T15:18:03.677Z,36.40
2019-05-12T15:22:07.631Z,36.80
2019-05-12T15:26:15.778Z,38.20
2019-05-12T15:30:22.837Z,39.30
2019-05-12T15:34:20.419Z,37.30
2019-05-12T15:38:23.999Z,39.60
2019-05-12T15:42:27.274Z,38.60
2019-05-12T15:46:33.053Z,39.30
2019-05-12T15:50:35.236Z,37.40
2019-05-12T15:54:45.791Z,39.70
2019-05-12T15:58:44.195Z,40.40
2019-05-12T16:02:48.449Z,40.10
2019-05-12T16:06:57.140Z,40.50
2019-05-12T16:10:56.672Z,38.30
2019-05-12T16:14:59.710Z,47.80
2019-05-12T16:19:04.531Z,39.10
2019-05-12T16:23:08.605Z,40.00
2019-05-12T16:27:14.096Z,40.20
2019-05-12T16:31:17.327Z,38.70
2019-05-12T16:35:26.692Z,38.40
2019-05-12T16:39:25.439Z,39.00
2019-05-12T16:43:35.092Z,38.30
2019-05-12T16:47:38.005Z,38.50
2019-05-12T16:51:43.634Z,38.40
2019-05-12T16:55:50.015Z,38.40
2019-05-12T17:00:02.246Z,38.60
2019-05-12T17:04:00.277Z,38.90
2019-05-12T17:08:04.212Z,39.50
2019-05-12T17:12:07.577Z,39.50
2019-05-12T17:16:10.598Z,40.60
2019-05-12T17:20:14.227Z,40.20
2019-05-12T17:24:17.415Z,40.20
2019-05-12T17:28:23.668Z,40.50
2019-05-12T17:32:26.613Z,41.10
2019-05-12T17:36:29.670Z,41.80
2019-05-12T17:40:33.925Z,41.20
2019-05-12T17:44:39.101Z,41.50
2019-05-12T17:48:42.738Z,42.10
2019-05-12T17:52:50.505Z,42.50
2019-05-12T17:56:52.106Z,42.00
2019-05-12T18:00:55.135Z,42.80
2019-05-12T18:05:01.250Z,42.30
2019-05-12T18:09:09.333Z,43.40
2019-05-12T18:13:17.532Z,43.50
2019-05-12T18:17:15.998Z,43.20
2019-05-12T18:21:21.725Z,43.10
2019-05-12T18:25:30.300Z,43.20
2019-05-12T18:29:28.901Z,43.90
2019-05-12T18:33:36.690Z,44.00
2019-05-12T18:37:37.045Z,44.30
2019-05-12T18:41:43.855Z,44.50
2019-05-12T18:45:48.651Z,44.60
2019-05-12T18:49:53.831Z,45.40
2019-05-12T18:53:57.944Z,45.90
2019-05-12T18:58:04.096Z,46.40
2019-05-12T19:02:06.183Z,46.60
2019-05-12T19:06:10.719Z,46.70
2019-05-12T19:10:14.269Z,47.80
2019-05-12T19:14:17.339Z,47.60
2019-05-12T19:18:26.650Z,47.90
2019-05-12T19:22:25.284Z,48.90
2019-05-12T19:26:32.987Z,48.10
2019-05-12T19:30:34.457Z,48.10
2019-05-12T19:34:39.442Z,47.40
2019-05-12T19:38:43.855Z,47.40
2019-05-12T19:42:47.038Z,47.20
2019-05-12T19:46:50.051Z,48.40
2019-05-12T19:50:56.828Z,48.90
2019-05-12T19:54:58.175Z,49.60
2019-05-12T19:59:01.385Z,51.10
2019-05-12T20:03:06.594Z,50.90
2019-05-12T20:07:11.110Z,51.80
2019-05-12T20:11:14.387Z,52.40
2019-05-12T20:15:17.572Z,52.80
2019-05-12T20:19:25.326Z,53.10
2019-05-12T20:23:25.513Z,53.70
2019-05-12T20:27:28.528Z,53.90
2019-05-12T20:31:35.437Z,54.80
2019-05-12T20:35:39.276Z,54.70
2019-05-12T20:39:41.388Z,55.10
2019-05-12T20:43:44.555Z,55.20
2019-05-12T20:47:47.908Z,55.70
2019-05-12T20:51:54.864Z,55.80
2019-05-12T20:55:55.938Z,56.40
2019-05-12T21:00:04.726Z,56.20
2019-05-12T21:04:07.520Z,57.20
2019-05-12T21:08:12.096Z,57.20
2019-05-12T21:12:14.751Z,58.30
2019-05-12T21:16:25.291Z,58.70
2019-05-12T21:20:24.259Z,58.40
2019-05-12T21:24:29.605Z,59.00
2019-05-12T21:28:37.041Z,59.10
2019-05-12T21:32:37.380Z,59.00
2019-05-12T21:36:40.409Z,59.70
2019-05-12T21:40:44.190Z,59.40
2019-05-12T21:44:48.964Z,59.80
2019-05-12T21:48:53.201Z,60.50
2019-05-12T21:52:59.796Z,61.00
2019-05-12T21:57:01.893Z,60.50
2019-05-12T22:01:07.688Z,61.10
2019-05-12T22:05:14.039Z,60.80
2019-05-12T22:09:17.703Z,61.20
2019-05-12T22:13:20.761Z,62.50
2019-05-12T22:17:23.999Z,62.10
2019-05-12T22:21:27.128Z,62.70
2019-05-12T22:25:30.155Z,62.70
2019-05-12T22:29:34.269Z,63.20
2019-05-12T22:33:40.838Z,63.40
2019-05-12T22:37:42.483Z,64.00
2019-05-12T22:41:45.500Z,64.50
2019-05-12T22:45:49.445Z,64.70
2019-05-12T22:49:56.947Z,64.90
2019-05-12T22:54:00.564Z,65.30
2019-05-12T22:58:03.119Z,67.00
2019-05-12T23:02:06.259Z,66.20
2019-05-12T23:06:23.391Z,66.20
2019-05-12T23:10:15.588Z,66.20
2019-05-12T23:14:22.199Z,66.30
2019-05-12T23:18:29.610Z,67.00
2019-05-12T23:22:35.442Z,66.70
2019-05-12T23:26:42.002Z,66.70
2019-05-12T23:30:43.757Z,67.20
2019-05-12T23:34:54.125Z,68.30
2019-05-12T23:38:52.023Z,69.00
2019-05-12T23:42:55.127Z,69.90
2019-05-12T23:46:58.148Z,69.80
2019-05-12T23:51:03.587Z,70.00
2019-05-12T23:55:06.502Z,69.90
2019-05-12T23:59:09.629Z,70.20
